Time;durP1;ratioP1;P1;durP2;ratioP2;P2;SDS_P1;SDS_P2;PMS_P1;PMS_P2;Temp;Humidity;BMP_temperature;BMP_pressure;BME280_temperature;BME280_humidity;BME280_pressure;Samples;Min_cycle;Max_cycle;Signal;HPM_P1;HPM_P2
2023/01/08 00:02:06;;;;;;;6.45;4.47;;;9.40;99.90;;;;;;5013691;28;20499;-71
2023/01/08 00:04:32;;;;;;;5.03;4.10;;;9.40;99.90;;;;;;5013317;28;20428;-71
2023/01/08 00:06:59;;;;;;;4.30;3.63;;;9.40;99.90;;;;;;5012792;28;20911;-70
2023/01/08 00:09:27;;;;;;;4.20;3.38;;;9.40;99.90;;;;;;5013123;28;20427;-71
2023/01/08 00:11:54;;;;;;;4.03;3.13;;;9.40;99.90;;;;;;5013318;28;20423;-72
2023/01/08 00:14:21;;;;;;;3.15;2.75;;;9.50;99.90;;;;;;5012855;28;20424;-69
2023/01/08 00:16:47;;;;;;;3.55;3.25;;;9.50;99.90;;;;;;5013664;28;20432;-72
2023/01/08 00:19:15;;;;;;;7.03;5.25;;;9.50;99.90;;;;;;5013696;28;20429;-72
2023/01/08 00:21:41;;;;;;;3.67;2.80;;;9.50;99.90;;;;;;5013244;28;20421;-71
2023/01/08 00:24:08;;;;;;;3.85;3.40;;;9.50;99.90;;;;;;5013144;28;20459;-71
2023/01/08 00:26:36;;;;;;;8.00;5.47;;;9.50;99.90;;;;;;5015480;28;20424;-70
2023/01/08 00:29:03;;;;;;;5.95;3.95;;;9.50;99.90;;;;;;5017024;28;20923;-70
2023/01/08 00:31:30;;;;;;;5.80;4.50;;;9.50;99.90;;;;;;5018959;28;20465;-70
2023/01/08 00:33:57;;;;;;;6.07;4.50;;;9.50;99.90;;;;;;5017710;28;20507;-70
2023/01/08 00:36:23;;;;;;;2.95;2.65;;;9.50;99.90;;;;;;5016602;28;20428;-70
2023/01/08 00:38:50;;;;;;;3.88;2.88;;;9.50;99.90;;;;;;5016982;28;20421;-70
2023/01/08 00:41:17;;;;;;;3.42;2.78;;;9.50;99.90;;;;;;5017696;28;20427;-70
2023/01/08 00:43:45;;;;;;;3.63;3.10;;;9.60;99.90;;;;;;5016653;28;20452;-68
2023/01/08 00:46:12;;;;;;;3.80;2.60;;;9.60;99.90;;;;;;5016689;28;20420;-68
2023/01/08 00:48:39;;;;;;;4.20;2.80;;;9.70;99.90;;;;;;5016885;28;20484;-70
2023/01/08 00:51:07;;;;;;;3.13;2.72;;;9.70;99.90;;;;;;5016202;28;20905;-69
2023/01/08 00:53:34;;;;;;;4.17;2.80;;;9.80;99.90;;;;;;5018036;28;20420;-71
2023/01/08 00:56:01;;;;;;;3.80;2.80;;;9.80;99.90;;;;;;5016725;28;20921;-69
2023/01/08 00:58:28;;;;;;;4.75;2.70;;;9.90;99.90;;;;;;5017063;28;20778;-71
2023/01/08 01:00:56;;;;;;;3.60;2.60;;;9.80;99.90;;;;;;5018405;28;20762;-69
2023/01/08 01:03:23;;;;;;;4.40;3.20;;;9.90;99.90;;;;;;5016967;28;20426;-69
2023/01/08 01:05:50;;;;;;;5.85;2.80;;;9.90;99.90;;;;;;5017277;28;20423;-71
2023/01/08 01:08:17;;;;;;;4.00;2.80;;;9.90;99.90;;;;;;5017289;28;20427;-71
2023/01/08 01:10:44;;;;;;;3.80;2.92;;;9.90;99.90;;;;;;5017173;28;20429;-70
2023/01/08 01:13:11;;;;;;;3.80;2.90;;;9.90;99.90;;;;;;5016495;28;20417;-70
2023/01/08 01:15:38;;;;;;;3.53;2.60;;;9.80;99.90;;;;;;5016282;28;20484;-70
2023/01/08 01:18:06;;;;;;;3.45;3.15;;;9.80;99.90;;;;;;5016209;28;20431;-70
2023/01/08 01:20:33;;;;;;;3.50;2.80;;;9.80;99.90;;;;;;5016308;28;20495;-70
2023/01/08 01:23:00;;;;;;;3.40;3.10;;;9.80;99.90;;;;;;5016719;28;20423;-71
2023/01/08 01:25:27;;;;;;;3.60;2.70;;;9.70;99.90;;;;;;5016768;28;20432;-71
2023/01/08 01:27:54;;;;;;;5.10;3.58;;;9.70;99.90;;;;;;5016345;28;20413;-71
2023/01/08 01:30:20;;;;;;;3.35;2.80;;;9.70;99.90;;;;;;5016680;28;20431;-71
2023/01/08 01:32:47;;;;;;;4.78;3.20;;;9.70;99.90;;;;;;5016666;28;20437;-71
2023/01/08 01:35:15;;;;;;;3.25;2.75;;;9.70;99.90;;;;;;5016689;28;20496;-72
2023/01/08 01:37:42;;;;;;;3.50;2.90;;;9.70;99.90;;;;;;5015362;28;20413;-71
2023/01/08 01:40:10;;;;;;;3.40;3.10;;;9.70;99.90;;;;;;5015830;28;20417;-70
2023/01/08 01:42:39;;;;;;;3.50;2.85;;;9.70;99.90;;;;;;5015403;28;20420;-70
2023/01/08 01:45:14;;;;;;;4.07;3.10;;;9.70;99.90;;;;;;5015040;28;20956;-68
2023/01/08 01:47:43;;;;;;;3.20;2.90;;;9.70;99.90;;;;;;5015644;28;20436;-70
2023/01/08 01:50:15;;;;;;;3.50;3.20;;;9.70;99.90;;;;;;5015534;28;20420;-69
2023/01/08 01:52:46;;;;;;;3.45;2.90;;;9.70;99.90;;;;;;5015226;28;20419;-70
2023/01/08 01:55:15;;;;;;;3.78;3.20;;;9.60;99.90;;;;;;5015300;28;20476;-70
2023/01/08 01:57:48;;;;;;;3.60;3.20;;;9.60;99.90;;;;;;5015541;28;20781;-69
2023/01/08 02:00:16;;;;;;;3.65;3.00;;;9.70;99.90;;;;;;5015461;28;20412;-69
2023/01/08 02:02:43;;;;;;;3.65;3.20;;;9.70;99.90;;;;;;5015241;28;20425;-70
2023/01/08 02:05:10;;;;;;;3.47;3.05;;;9.70;99.90;;;;;;5015225;28;20427;-70
2023/01/08 02:07:46;;;;;;;3.42;3.13;;;9.70;99.90;;;;;;5015574;28;20424;-71
2023/01/08 02:10:20;;;;;;;4.50;3.22;;;9.70;99.90;;;;;;5016231;28;20828;-70
2023/01/08 02:12:52;;;;;;;3.50;3.17;;;9.80;99.90;;;;;;5015698;28;20420;-70
2023/01/08 02:15:23;;;;;;;3.50;2.90;;;9.80;99.90;;;;;;5014741;28;20519;-70
2023/01/08 02:17:55;;;;;;;3.40;3.10;;;9.80;99.90;;;;;;5014997;28;20417;-70
2023/01/08 02:20:29;;;;;;;3.70;3.00;;;9.80;99.90;;;;;;5015062;28;20417;-70
2023/01/08 02:23:16;;;;;;;4.05;3.13;;;9.80;99.90;;;;;;5014562;28;20416;-70
2023/01/08 02:26:06;;;;;;;3.63;3.28;;;9.80;99.90;;;;;;5014453;28;20427;-70
2023/01/08 02:28:39;;;;;;;3.80;3.50;;;9.80;99.90;;;;;;5014336;28;20413;-69
2023/01/08 02:31:06;;;;;;;4.30;3.50;;;9.80;99.90;;;;;;5014210;28;20412;-70
2023/01/08 02:33:34;;;;;;;4.10;3.00;;;9.80;99.90;;;;;;5014647;28;20433;-70
2023/01/08 02:36:20;;;;;;;4.10;3.53;;;9.90;99.90;;;;;;5013941;28;20440;-69
2023/01/08 02:39:06;;;;;;;3.60;3.20;;;9.90;99.90;;;;;;5013980;28;20417;-70
2023/01/08 02:41:51;;;;;;;3.90;3.00;;;9.90;99.90;;;;;;5013546;28;20427;-68
2023/01/08 02:44:24;;;;;;;4.30;3.40;;;9.90;99.90;;;;;;5013330;28;20428;-69
2023/01/08 02:46:54;;;;;;;4.00;3.03;;;9.90;99.90;;;;;;5013605;28;20484;-71
2023/01/08 02:49:27;;;;;;;3.50;3.20;;;9.90;99.90;;;;;;5012885;28;20809;-70
2023/01/08 02:51:55;;;;;;;4.53;3.70;;;9.90;99.90;;;;;;5013292;28;20991;-69
2023/01/08 02:54:27;;;;;;;4.47;3.60;;;9.90;99.90;;;;;;5013673;28;20424;-70
2023/01/08 02:57:01;;;;;;;3.83;3.20;;;9.90;99.90;;;;;;5013516;28;20472;-70
2023/01/08 02:59:31;;;;;;;4.50;3.10;;;9.90;99.90;;;;;;5013457;28;20421;-70
2023/01/08 03:01:58;;;;;;;3.50;3.20;;;9.90;99.90;;;;;;5013428;28;20908;-72
2023/01/08 03:04:26;;;;;;;4.80;3.53;;;9.90;99.90;;;;;;5013391;28;20921;-70
2023/01/08 03:06:52;;;;;;;4.10;3.70;;;9.90;99.90;;;;;;5013589;28;20413;-70
2023/01/08 03:09:20;;;;;;;3.83;3.42;;;9.90;99.90;;;;;;5013808;28;20416;-70
2023/01/08 03:11:53;;;;;;;4.40;3.70;;;9.90;99.90;;;;;;5013678;28;20424;-70
2023/01/08 03:14:25;;;;;;;4.15;3.50;;;9.90;99.90;;;;;;5013508;28;20412;-71
2023/01/08 03:16:56;;;;;;;3.70;3.30;;;9.90;99.90;;;;;;5013200;28;20527;-68
2023/01/08 03:19:28;;;;;;;4.60;3.33;;;9.90;99.90;;;;;;5013467;28;20428;-70
2023/01/08 03:21:56;;;;;;;3.33;3.03;;;10.00;99.90;;;;;;5014202;28;20416;-70
2023/01/08 03:24:25;;;;;;;4.43;3.20;;;10.00;99.90;;;;;;5013337;28;20425;-70
2023/01/08 03:26:56;;;;;;;3.40;3.10;;;10.00;99.90;;;;;;5014126;28;20444;-70
2023/01/08 03:29:25;;;;;;;3.20;2.90;;;10.00;99.90;;;;;;5014769;28;20424;-70
2023/01/08 03:31:55;;;;;;;3.50;3.20;;;10.00;99.90;;;;;;5014160;28;20435;-70
2023/01/08 03:34:25;;;;;;;3.45;3.08;;;10.10;99.90;;;;;;5013673;28;20413;-70
2023/01/08 03:36:55;;;;;;;3.80;3.00;;;10.10;99.90;;;;;;5013971;28;20428;-69
2023/01/08 03:39:27;;;;;;;3.50;3.13;;;10.10;99.90;;;;;;5013996;28;20427;-70
2023/01/08 03:41:59;;;;;;;3.63;2.92;;;10.10;99.90;;;;;;5013228;28;20413;-69
2023/01/08 03:44:27;;;;;;;4.23;3.20;;;10.10;99.90;;;;;;5013776;28;20502;-69
2023/01/08 03:46:56;;;;;;;3.55;3.22;;;10.10;99.90;;;;;;5013241;28;20413;-70
2023/01/08 03:49:26;;;;;;;5.05;3.80;;;10.10;99.90;;;;;;5012604;28;20885;-70
2023/01/08 03:51:53;;;;;;;5.30;3.50;;;10.10;99.90;;;;;;5013229;28;20428;-69
2023/01/08 03:54:23;;;;;;;3.60;3.30;;;10.10;99.90;;;;;;5013290;28;20423;-69
2023/01/08 03:56:50;;;;;;;3.35;3.00;;;10.10;99.90;;;;;;5013707;28;20436;-71
2023/01/08 03:59:17;;;;;;;3.67;3.10;;;10.10;99.90;;;;;;5013950;28;20459;-71
2023/01/08 04:01:45;;;;;;;4.10;3.40;;;10.10;99.90;;;;;;5014377;28;20416;-69
2023/01/08 04:04:12;;;;;;;3.25;2.90;;;10.10;99.90;;;;;;5012552;28;20419;-69
2023/01/08 04:06:39;;;;;;;3.90;3.20;;;10.10;99.90;;;;;;5012730;28;20416;-71
2023/01/08 04:10:53;;;;;;;3.90;3.10;;;10.10;99.90;;;;;;5087154;27;1916895;-70
2023/01/08 04:13:20;;;;;;;3.95;3.55;;;10.10;99.90;;;;;;5131291;28;20407;-71
2023/01/08 04:15:48;;;;;;;3.70;3.40;;;10.10;99.90;;;;;;5114800;28;20416;-70
2023/01/08 04:18:15;;;;;;;3.70;3.30;;;10.10;99.90;;;;;;5111452;28;20413;-71
2023/01/08 04:20:45;;;;;;;3.83;3.30;;;10.10;99.90;;;;;;5111623;28;20412;-71
2023/01/08 04:23:12;;;;;;;4.03;3.40;;;10.10;99.90;;;;;;5117219;22;21272;-65
2023/01/08 04:25:39;;;;;;;4.00;3.30;;;10.00;99.90;;;;;;5049121;28;20417;-67
2023/01/08 04:28:07;;;;;;;6.45;5.35;;;10.00;99.90;;;;;;5049105;28;20418;-66
2023/01/08 04:30:33;;;;;;;5.78;5.18;;;10.00;99.90;;;;;;5049066;28;20431;-67
2023/01/08 04:33:00;;;;;;;4.90;4.40;;;10.00;99.90;;;;;;5052338;28;20422;-67
2023/01/08 04:35:27;;;;;;;3.30;3.00;;;10.00;99.90;;;;;;5069680;28;20510;-67
2023/01/08 04:37:54;;;;;;;4.82;3.20;;;10.00;99.90;;;;;;5069280;28;20416;-67
2023/01/08 04:40:20;;;;;;;4.30;3.40;;;10.00;99.90;;;;;;5069342;28;20908;-66
2023/01/08 04:42:47;;;;;;;3.92;3.25;;;10.00;99.90;;;;;;5071810;28;20427;-66
2023/01/08 04:45:15;;;;;;;5.25;4.75;;;10.00;99.90;;;;;;5071051;28;20424;-67
2023/01/08 04:47:42;;;;;;;4.50;3.85;;;9.90;99.90;;;;;;5070533;28;20417;-67
2023/01/08 04:50:09;;;;;;;3.83;3.22;;;9.90;99.90;;;;;;5070119;28;20444;-68
2023/01/08 04:52:36;;;;;;;3.50;3.20;;;9.90;99.90;;;;;;5069769;28;20416;-67
2023/01/08 04:55:04;;;;;;;4.15;3.30;;;9.90;99.90;;;;;;5068931;28;20415;-67
2023/01/08 04:57:30;;;;;;;4.20;3.10;;;10.00;99.90;;;;;;5069050;28;20412;-66
2023/01/08 04:59:57;;;;;;;3.30;3.00;;;10.00;99.90;;;;;;5068763;28;20427;-67
2023/01/08 05:02:25;;;;;;;4.13;3.20;;;10.00;99.90;;;;;;5068195;28;20412;-68
2023/01/08 05:04:52;;;;;;;4.70;3.80;;;9.90;99.90;;;;;;5068343;28;20426;-67
2023/01/08 05:07:18;;;;;;;4.50;3.42;;;9.90;99.90;;;;;;5068536;28;20425;-67
2023/01/08 05:09:45;;;;;;;4.35;3.33;;;9.90;99.90;;;;;;5068727;28;20433;-67
2023/01/08 05:12:12;;;;;;;3.60;3.30;;;9.90;99.90;;;;;;5069554;28;20416;-68
2023/01/08 05:14:39;;;;;;;6.03;3.45;;;9.90;99.90;;;;;;5076340;28;20412;-65
2023/01/08 05:17:05;;;;;;;3.35;3.05;;;9.90;99.90;;;;;;5068530;28;20412;-66
2023/01/08 05:19:34;;;;;;;3.47;3.17;;;9.90;99.90;;;;;;5068954;28;20444;-66
2023/01/08 05:22:00;;;;;;;5.72;3.78;;;9.90;99.90;;;;;;5056398;28;20417;-67
2023/01/08 05:24:27;;;;;;;3.50;3.20;;;9.90;99.90;;;;;;5054644;28;20417;-67
2023/01/08 05:26:54;;;;;;;4.90;3.40;;;9.90;99.90;;;;;;5054907;28;20417;-67
2023/01/08 05:29:21;;;;;;;3.80;3.05;;;9.90;99.90;;;;;;5054680;28;20425;-67
2023/01/08 05:31:47;;;;;;;3.45;3.10;;;9.90;99.90;;;;;;5054558;28;20420;-68
2023/01/08 05:34:14;;;;;;;3.80;3.40;;;9.90;99.90;;;;;;5054702;28;20425;-67
2023/01/08 05:36:43;;;;;;;4.30;3.10;;;9.80;99.90;;;;;;5054246;28;20897;-68
2023/01/08 05:39:09;;;;;;;4.35;3.10;;;9.80;99.90;;;;;;5054442;28;20417;-67
2023/01/08 05:41:37;;;;;;;4.80;3.05;;;9.80;99.90;;;;;;5054552;28;20409;-67
2023/01/08 05:44:03;;;;;;;4.65;3.47;;;9.80;99.90;;;;;;5054314;28;20413;-69
2023/01/08 05:46:30;;;;;;;5.50;3.45;;;9.80;99.90;;;;;;5053047;28;20433;-68
2023/01/08 05:48:57;;;;;;;6.37;4.80;;;9.80;99.90;;;;;;5052025;28;20913;-67
2023/01/08 05:51:24;;;;;;;4.90;3.40;;;9.70;99.90;;;;;;5052705;28;20429;-66
2023/01/08 05:53:52;;;;;;;4.75;3.50;;;9.70;99.90;;;;;;5051985;28;20433;-68
2023/01/08 05:56:19;;;;;;;3.72;3.42;;;9.70;99.90;;;;;;5052819;28;20441;-67
2023/01/08 05:58:45;;;;;;;5.13;3.80;;;9.70;99.90;;;;;;5051733;28;20444;-67
2023/01/08 06:01:15;;;;;;;5.72;3.80;;;9.60;99.90;;;;;;5052903;28;20433;-67
2023/01/08 06:03:42;;;;;;;4.40;3.90;;;9.60;99.90;;;;;;5051960;28;20480;-66
2023/01/08 06:06:10;;;;;;;4.60;4.10;;;9.60;99.90;;;;;;5053052;28;20417;-66
2023/01/08 06:08:37;;;;;;;4.90;4.00;;;9.60;99.90;;;;;;5053327;28;20418;-66
2023/01/08 06:11:08;;;;;;;5.70;4.43;;;9.60;99.90;;;;;;5042450;28;20431;-66
2023/01/08 06:13:36;;;;;;;4.28;3.88;;;9.50;99.90;;;;;;5033766;28;20415;-66
2023/01/08 06:16:03;;;;;;;5.20;4.10;;;9.50;99.90;;;;;;5033611;28;20426;-66
2023/01/08 06:18:30;;;;;;;4.47;4.07;;;9.50;99.90;;;;;;5033562;28;20423;-65
2023/01/08 06:20:57;;;;;;;5.95;4.60;;;9.50;99.90;;;;;;5033422;28;20419;-67
2023/01/08 06:23:24;;;;;;;5.07;4.43;;;9.40;99.90;;;;;;5051120;28;20424;-67
2023/01/08 06:25:54;;;;;;;4.60;4.00;;;9.40;99.90;;;;;;5053051;28;20789;-64
2023/01/08 06:28:23;;;;;;;5.57;4.32;;;9.40;99.90;;;;;;5038078;28;20425;-66
2023/01/08 06:30:50;;;;;;;4.60;4.20;;;9.30;99.90;;;;;;5052272;28;20432;-63
2023/01/08 06:33:17;;;;;;;4.60;4.00;;;9.30;99.90;;;;;;5051089;28;20918;-64
2023/01/08 06:35:44;;;;;;;4.90;4.40;;;9.30;99.90;;;;;;5051207;28;20452;-62
2023/01/08 06:38:11;;;;;;;5.70;5.07;;;9.30;99.90;;;;;;5051682;28;20932;-62
2023/01/08 06:40:38;;;;;;;5.15;4.60;;;9.30;99.90;;;;;;5047112;28;20458;-63
2023/01/08 06:43:05;;;;;;;5.05;4.55;;;9.30;99.90;;;;;;5051443;28;20944;-66
2023/01/08 06:45:33;;;;;;;5.18;4.68;;;9.30;99.90;;;;;;5051903;28;20936;-63
2023/01/08 06:48:01;;;;;;;5.20;4.65;;;9.30;99.90;;;;;;5052592;28;20802;-63
2023/01/08 06:50:28;;;;;;;5.70;4.88;;;9.20;99.90;;;;;;5052108;28;20979;-63
2023/01/08 06:52:56;;;;;;;5.47;4.97;;;9.20;99.90;;;;;;5052140;28;20436;-64
2023/01/08 06:55:24;;;;;;;5.25;4.75;;;9.20;99.90;;;;;;5048645;28;20583;-64
2023/01/08 06:57:53;;;;;;;4.90;4.20;;;9.20;99.90;;;;;;5051512;28;20499;-65
2023/01/08 07:00:22;;;;;;;5.53;4.53;;;9.20;99.90;;;;;;5052582;28;20414;-63
2023/01/08 07:02:50;;;;;;;6.78;4.78;;;9.20;99.90;;;;;;5050175;28;20439;-63
2023/01/08 07:05:17;;;;;;;4.80;4.00;;;9.20;99.90;;;;;;5051463;28;20842;-64
2023/01/08 07:07:45;;;;;;;4.80;4.40;;;9.20;99.90;;;;;;5052197;28;20409;-63
2023/01/08 07:10:12;;;;;;;4.40;4.00;;;9.20;99.90;;;;;;5052524;28;20436;-63
2023/01/08 07:12:38;;;;;;;5.40;4.30;;;9.20;99.90;;;;;;5052586;28;20899;-64
2023/01/08 07:15:06;;;;;;;5.40;4.30;;;9.20;99.90;;;;;;5052571;28;20417;-64
2023/01/08 07:17:33;;;;;;;5.80;3.95;;;9.20;99.90;;;;;;5052504;28;20413;-63
2023/01/08 07:20:01;;;;;;;4.65;4.15;;;9.20;99.90;;;;;;5053053;28;20412;-63
2023/01/08 07:22:28;;;;;;;5.72;4.22;;;9.20;99.90;;;;;;5051803;28;20420;-63
2023/01/08 07:24:55;;;;;;;5.10;4.30;;;9.20;99.90;;;;;;5051880;28;20413;-62
2023/01/08 07:27:22;;;;;;;5.40;4.60;;;9.20;99.90;;;;;;5052415;28;20421;-62
2023/01/08 07:29:48;;;;;;;4.70;3.85;;;9.20;99.90;;;;;;5051913;28;20937;-62
2023/01/08 07:32:15;;;;;;;5.60;4.20;;;9.20;99.90;;;;;;5052356;28;20425;-61
2023/01/08 07:34:42;;;;;;;5.18;4.43;;;9.20;99.90;;;;;;5052431;28;20413;-62
2023/01/08 07:37:10;;;;;;;6.07;4.57;;;9.20;99.90;;;;;;5052624;28;20417;-62
2023/01/08 07:39:37;;;;;;;5.00;4.33;;;9.20;99.90;;;;;;5052816;28;20910;-62
2023/01/08 07:42:03;;;;;;;6.10;4.70;;;9.10;99.90;;;;;;5053314;28;20417;-63
2023/01/08 07:44:30;;;;;;;5.28;4.78;;;9.10;99.90;;;;;;5053823;28;20428;-62
2023/01/08 07:46:57;;;;;;;6.75;4.95;;;9.10;99.90;;;;;;5053927;28;20423;-63
2023/01/08 07:49:24;;;;;;;5.25;4.60;;;9.10;99.90;;;;;;5054844;28;20420;-62
2023/01/08 07:51:50;;;;;;;6.38;4.60;;;9.10;99.90;;;;;;5054424;28;20425;-62
2023/01/08 07:54:18;;;;;;;4.83;4.40;;;9.10;99.90;;;;;;5053700;28;20520;-63
2023/01/08 07:56:45;;;;;;;6.22;5.00;;;9.10;99.90;;;;;;5053569;28;20424;-62
2023/01/08 07:59:12;;;;;;;5.90;5.07;;;9.10;99.90;;;;;;5052817;28;20786;-63
2023/01/08 08:01:38;;;;;;;5.38;4.50;;;9.10;99.90;;;;;;5054911;28;20413;-63
2023/01/08 08:04:05;;;;;;;5.38;4.50;;;9.10;99.90;;;;;;5054011;28;20766;-63
2023/01/08 08:06:32;;;;;;;5.60;4.97;;;9.10;99.90;;;;;;5052307;28;20870;-62
2023/01/08 08:08:59;;;;;;;5.03;4.53;;;9.10;99.90;;;;;;5052628;28;20408;-64
2023/01/08 08:11:27;;;;;;;4.53;4.13;;;9.10;99.90;;;;;;5054097;28;20429;-63
2023/01/08 08:13:54;;;;;;;5.50;4.70;;;9.10;99.90;;;;;;5054741;28;20417;-63
2023/01/08 08:16:20;;;;;;;5.60;4.53;;;9.10;99.90;;;;;;5053123;28;20421;-63
2023/01/08 08:18:47;;;;;;;5.30;4.75;;;9.20;99.90;;;;;;5052550;28;20417;-63
2023/01/08 08:21:14;;;;;;;5.95;5.30;;;9.20;99.90;;;;;;5052575;28;20409;-62
2023/01/08 08:23:40;;;;;;;5.63;4.82;;;9.20;99.90;;;;;;5051377;28;20450;-62
2023/01/08 08:26:07;;;;;;;5.53;4.90;;;9.20;99.90;;;;;;5051747;28;20417;-63
2023/01/08 08:28:35;;;;;;;5.25;4.75;;;9.20;99.90;;;;;;5051742;28;20417;-61
2023/01/08 08:31:04;;;;;;;5.80;4.70;;;9.20;99.90;;;;;;5051934;28;20452;-65
2023/01/08 08:33:31;;;;;;;5.93;4.70;;;9.20;99.90;;;;;;5051765;28;20431;-62
2023/01/08 08:35:57;;;;;;;5.40;4.90;;;9.30;99.90;;;;;;5051674;28;20417;-63
2023/01/08 08:38:25;;;;;;;6.03;5.20;;;9.30;99.90;;;;;;5051573;28;20416;-62
2023/01/08 08:40:52;;;;;;;6.20;5.60;;;9.30;99.90;;;;;;5051568;28;20417;-64
2023/01/08 08:43:19;;;;;;;6.43;5.72;;;9.30;99.90;;;;;;5052828;28;20515;-63
2023/01/08 08:45:47;;;;;;;5.55;5.05;;;9.30;99.90;;;;;;5052118;28;20417;-64
2023/01/08 08:48:15;;;;;;;6.87;5.33;;;9.30;99.90;;;;;;5052108;28;20421;-63
2023/01/08 08:50:42;;;;;;;5.03;4.40;;;9.30;99.90;;;;;;5052793;28;20461;-64
2023/01/08 08:53:10;;;;;;;5.00;4.47;;;9.40;99.90;;;;;;5051838;28;20424;-64
2023/01/08 08:55:37;;;;;;;5.50;4.47;;;9.40;99.90;;;;;;5052333;28;20423;-62
2023/01/08 08:58:05;;;;;;;4.50;4.10;;;9.40;99.90;;;;;;5057200;28;20431;-63
2023/01/08 09:00:32;;;;;;;5.25;4.68;;;9.50;99.90;;;;;;5055918;28;20436;-62
2023/01/08 09:03:00;;;;;;;4.70;4.20;;;9.50;99.90;;;;;;5055979;28;20446;-63
2023/01/08 09:05:27;;;;;;;6.10;4.47;;;9.60;99.90;;;;;;5055337;28;20901;-63
2023/01/08 09:07:54;;;;;;;4.10;3.70;;;9.60;99.90;;;;;;5056517;28;20425;-62
2023/01/08 09:10:21;;;;;;;4.82;4.38;;;9.60;99.90;;;;;;5057151;28;20433;-63
2023/01/08 09:12:48;;;;;;;5.50;4.90;;;9.60;99.90;;;;;;5057019;28;20420;-62
2023/01/08 09:15:15;;;;;;;5.13;4.47;;;9.70;99.90;;;;;;5055948;28;20417;-63
2023/01/08 09:17:42;;;;;;;7.60;5.60;;;9.70;99.90;;;;;;5056096;28;20444;-64
2023/01/08 09:20:10;;;;;;;7.72;5.60;;;9.70;99.90;;;;;;5056932;28;20417;-65
2023/01/08 09:22:37;;;;;;;7.55;6.20;;;9.80;99.90;;;;;;5055797;28;20893;-64
2023/01/08 09:25:05;;;;;;;8.48;6.25;;;9.90;99.90;;;;;;5055647;28;20421;-64
2023/01/08 09:27:31;;;;;;;8.13;5.80;;;9.90;99.90;;;;;;5055483;28;20841;-65
2023/01/08 09:29:58;;;;;;;7.10;5.50;;;10.00;99.90;;;;;;5055279;28;20420;-63
2023/01/08 09:32:25;;;;;;;5.80;3.90;;;10.00;99.90;;;;;;5055351;28;20429;-63
2023/01/08 09:34:52;;;;;;;4.50;4.00;;;10.00;99.90;;;;;;5057894;28;20421;-65
2023/01/08 09:37:22;;;;;;;4.30;3.30;;;10.00;99.90;;;;;;5058290;28;20413;-64
2023/01/08 09:39:49;;;;;;;3.40;3.10;;;9.90;99.90;;;;;;5057703;28;20417;-63
2023/01/08 09:42:19;;;;;;;4.15;3.55;;;9.90;99.90;;;;;;5057855;28;20446;-63
2023/01/08 09:44:48;;;;;;;3.90;3.30;;;9.90;99.90;;;;;;5056093;28;20447;-64
2023/01/08 09:47:23;;;;;;;3.30;3.00;;;10.00;99.90;;;;;;5056088;28;20785;-64
2023/01/08 09:49:54;;;;;;;2.90;2.70;;;10.10;99.90;;;;;;5055165;28;20789;-64
2023/01/08 09:52:22;;;;;;;3.10;2.50;;;10.30;99.90;;;;;;5055898;28;20913;-64
2023/01/08 09:54:49;;;;;;;2.40;2.17;;;10.40;99.90;;;;;;5056105;28;20423;-63
2023/01/08 09:57:19;;;;;;;2.70;2.50;;;10.50;99.90;;;;;;5055582;28;20417;-65
2023/01/08 09:59:47;;;;;;;3.20;2.80;;;10.50;99.90;;;;;;5056295;28;20423;-63
2023/01/08 10:02:16;;;;;;;3.58;2.80;;;10.60;99.90;;;;;;5056335;28;20413;-64
2023/01/08 10:04:44;;;;;;;3.00;2.70;;;10.60;99.90;;;;;;5055436;28;20793;-62
2023/01/08 10:07:20;;;;;;;3.15;2.75;;;10.50;99.90;;;;;;5055225;28;20428;-65
2023/01/08 10:09:49;;;;;;;2.20;2.00;;;10.50;99.90;;;;;;5061725;28;20475;-65
2023/01/08 10:12:27;;;;;;;2.75;2.10;;;10.50;99.90;;;;;;5062105;28;20418;-64
2023/01/08 10:14:56;;;;;;;2.20;2.00;;;10.50;99.90;;;;;;5062283;28;20420;-64
2023/01/08 10:17:29;;;;;;;2.47;1.80;;;10.50;99.90;;;;;;5062045;28;20417;-64
2023/01/08 10:19:56;;;;;;;2.70;2.05;;;10.50;99.90;;;;;;5060763;28;20421;-64
2023/01/08 10:22:25;;;;;;;2.50;2.30;;;10.50;99.90;;;;;;5060723;28;20420;-64
2023/01/08 10:24:53;;;;;;;1.80;1.60;;;10.60;99.90;;;;;;5055518;22;20451;-63
2023/01/08 10:27:22;;;;;;;2.17;1.85;;;10.60;99.90;;;;;;5013940;28;20542;-65
2023/01/08 10:29:50;;;;;;;2.10;1.90;;;10.70;99.90;;;;;;5013735;28;20421;-63
2023/01/08 10:32:18;;;;;;;2.65;1.92;;;10.70;99.90;;;;;;5013157;28;20443;-66
2023/01/08 10:34:49;;;;;;;2.00;1.70;;;10.80;99.90;;;;;;5013699;28;20508;-62
2023/01/08 10:37:22;;;;;;;2.00;1.80;;;10.80;99.90;;;;;;5013869;28;20424;-66
2023/01/08 10:39:50;;;;;;;1.97;1.70;;;10.90;99.90;;;;;;5014413;28;20420;-63
2023/01/08 10:42:21;;;;;;;2.00;1.63;;;11.00;99.90;;;;;;5013778;28;20763;-65
2023/01/08 10:44:57;;;;;;;2.45;1.70;;;11.10;99.90;;;;;;5014398;28;20428;-66
2023/01/08 10:47:25;;;;;;;1.73;1.48;;;11.10;99.90;;;;;;5013855;28;20420;-66
2023/01/08 10:49:52;;;;;;;1.52;1.30;;;11.20;99.90;;;;;;5013413;28;20545;-66
2023/01/08 10:52:25;;;;;;;2.50;1.40;;;11.20;99.90;;;;;;5013441;28;20436;-66
2023/01/08 10:54:52;;;;;;;2.08;1.60;;;11.10;99.90;;;;;;5013158;28;20500;-63
2023/01/08 10:57:24;;;;;;;2.40;1.33;;;11.20;99.90;;;;;;5013405;28;20415;-66
2023/01/08 10:59:50;;;;;;;1.92;1.45;;;11.20;99.90;;;;;;5013501;28;20417;-67
2023/01/08 11:02:25;;;;;;;1.63;1.40;;;11.20;99.90;;;;;;5013477;28;20412;-67
2023/01/08 11:04:52;;;;;;;1.70;1.20;;;11.20;99.90;;;;;;5013146;28;20472;-66
2023/01/08 11:07:21;;;;;;;2.10;1.10;;;11.20;99.90;;;;;;5013508;28;20420;-66
2023/01/08 11:09:50;;;;;;;1.52;1.40;;;11.20;99.90;;;;;;5013339;28;20423;-66
2023/01/08 11:12:32;;;;;;;1.30;1.10;;;11.10;99.90;;;;;;5013192;28;20456;-66
2023/01/08 11:14:59;;;;;;;1.35;1.20;;;11.10;99.90;;;;;;5013331;28;20421;-65
2023/01/08 11:17:27;;;;;;;2.10;1.40;;;11.10;99.90;;;;;;5013170;28;20416;-66
2023/01/08 11:19:54;;;;;;;1.30;1.20;;;11.20;99.90;;;;;;5012652;28;20432;-66
2023/01/08 11:22:22;;;;;;;2.40;1.60;;;11.20;99.90;;;;;;5013116;28;20436;-66
2023/01/08 11:24:51;;;;;;;1.60;1.40;;;11.20;99.90;;;;;;5012499;28;20424;-65
2023/01/08 11:27:25;;;;;;;1.75;1.10;;;11.30;99.90;;;;;;5012722;28;20929;-66
2023/01/08 11:29:59;;;;;;;2.00;1.00;;;11.20;99.90;;;;;;5012938;28;20419;-66
2023/01/08 11:32:37;;;;;;;2.35;1.05;;;11.30;99.90;;;;;;5013056;28;20439;-66
2023/01/08 11:35:12;;;;;;;1.50;1.13;;;11.40;99.90;;;;;;5012779;28;20461;-66
2023/01/08 11:37:43;;;;;;;1.52;1.00;;;11.50;99.90;;;;;;5012796;28;20417;-66
2023/01/08 11:40:14;;;;;;;1.55;1.00;;;11.50;99.90;;;;;;5013666;28;20423;-66
2023/01/08 11:43:04;;;;;;;1.40;1.00;;;11.60;99.90;;;;;;5014073;28;20766;-66
2023/01/08 11:45:43;;;;;;;2.45;0.93;;;11.60;99.90;;;;;;5013769;28;20416;-67
2023/01/08 11:48:26;;;;;;;1.20;1.00;;;11.60;99.90;;;;;;5012799;28;20427;-66
2023/01/08 11:51:16;;;;;;;1.80;0.90;;;11.60;99.90;;;;;;5012854;28;20413;-67
2023/01/08 11:53:47;;;;;;;1.30;0.90;;;11.60;99.90;;;;;;5012523;28;20436;-67
2023/01/08 11:56:24;;;;;;;1.60;1.20;;;11.60;99.90;;;;;;5011927;28;20412;-66
2023/01/08 11:59:09;;;;;;;2.00;0.90;;;11.60;99.90;;;;;;5012319;28;20431;-65
2023/01/08 12:01:49;;;;;;;1.95;1.17;;;11.60;99.90;;;;;;5018150;28;20419;-72
2023/01/08 12:04:35;;;;;;;1.42;1.15;;;11.60;99.90;;;;;;5014890;28;20652;-68
2023/01/08 12:07:10;;;;;;;2.83;1.20;;;11.70;99.90;;;;;;5011839;28;20413;-70
2023/01/08 12:09:41;;;;;;;2.60;1.00;;;11.70;99.90;;;;;;5012999;28;20415;-69
2023/01/08 12:12:18;;;;;;;2.90;1.00;;;11.80;99.90;;;;;;5011828;28;20424;-69
2023/01/08 12:14:59;;;;;;;1.70;1.00;;;11.90;99.90;;;;;;5012039;28;20412;-70
2023/01/08 12:17:53;;;;;;;2.45;1.13;;;11.90;99.90;;;;;;5011848;28;20421;-67
2023/01/08 12:20:29;;;;;;;1.40;0.90;;;12.00;99.90;;;;;;5012137;28;20439;-67
2023/01/08 12:23:05;;;;;;;3.20;0.98;;;11.90;99.90;;;;;;5012198;28;20413;-66
2023/01/08 12:25:45;;;;;;;3.30;1.10;;;11.90;99.90;;;;;;5012168;28;20425;-67
2023/01/08 12:28:21;;;;;;;1.92;1.20;;;11.90;99.90;;;;;;5011931;28;20440;-67
2023/01/08 12:31:05;;;;;;;2.30;1.17;;;11.80;99.90;;;;;;5012509;28;20417;-66
2023/01/08 12:33:37;;;;;;;3.20;1.40;;;11.90;99.90;;;;;;5016168;28;20409;-65
2023/01/08 12:36:09;;;;;;;2.40;1.10;;;11.90;99.90;;;;;;5016964;28;20423;-67
2023/01/08 12:38:38;;;;;;;3.50;1.40;;;11.80;99.90;;;;;;5015876;28;20416;-66
2023/01/08 12:41:10;;;;;;;2.00;1.20;;;11.70;99.90;;;;;;5015526;28;20423;-68
2023/01/08 12:43:48;;;;;;;4.15;1.42;;;11.70;99.90;;;;;;5015610;28;20419;-67
2023/01/08 12:46:16;;;;;;;2.60;1.20;;;11.70;99.90;;;;;;5015373;28;20785;-67
2023/01/08 12:48:46;;;;;;;2.63;1.10;;;11.70;99.90;;;;;;5015577;28;20432;-64
2023/01/08 12:51:18;;;;;;;3.43;1.80;;;11.80;99.90;;;;;;5015630;28;20412;-63
2023/01/08 12:53:53;;;;;;;2.85;1.40;;;11.70;99.90;;;;;;5015281;28;20479;-64
2023/01/08 12:56:26;;;;;;;2.80;1.20;;;11.80;99.90;;;;;;5015069;28;20507;-66
2023/01/08 12:59:09;;;;;;;2.53;1.30;;;11.80;99.90;;;;;;5015168;28;20475;-65
2023/01/08 13:01:44;;;;;;;3.10;1.70;;;11.90;99.90;;;;;;5015180;28;20412;-67
2023/01/08 13:04:12;;;;;;;3.58;1.60;;;12.00;99.90;;;;;;5015376;28;20416;-69
2023/01/08 13:06:49;;;;;;;3.67;1.90;;;12.00;99.90;;;;;;5015324;28;20763;-70